Time;durP1;ratioP1;P1;durP2;ratioP2;P2;SDS_P1;SDS_P2;PMS_P1;PMS_P2;Temp;Humidity;BMP_temperature;BMP_pressure;BME280_temperature;BME280_humidity;BME280_pressure;Samples;Min_cycle;Max_cycle;Signal;HPM_P1;HPM_P2
2021/05/09 00:01:25;;;;;;;0.90;0.90;;;;;;;9.84;65.68;96089.44;5075683;28;20049;-78
2021/05/09 00:03:52;;;;;;;0.70;0.70;;;;;;;9.86;65.72;96082.16;5075742;28;20068;-78
2021/05/09 00:06:19;;;;;;;0.85;0.80;;;;;;;9.85;65.76;96086.63;5075733;28;20469;-78
2021/05/09 00:08:46;;;;;;;0.70;0.70;;;;;;;9.84;65.66;96076.34;5075169;28;20400;-78
2021/05/09 00:11:12;;;;;;;1.00;1.00;;;;;;;9.84;65.99;96081.59;5075313;28;20040;-78
2021/05/09 00:13:39;;;;;;;0.70;0.70;;;;;;;9.81;65.97;96072.38;5075175;28;20473;-78
2021/05/09 00:16:06;;;;;;;1.20;1.10;;;;;;;9.79;65.93;96074.41;5074947;28;20043;-78
2021/05/09 00:18:33;;;;;;;1.00;1.00;;;;;;;9.79;65.94;96063.94;5075092;28;20090;-78
2021/05/09 00:20:59;;;;;;;0.88;0.80;;;;;;;9.81;65.97;96066.34;5074922;28;20039;-78
2021/05/09 00:23:26;;;;;;;1.45;0.60;;;;;;;9.81;66.05;96066.34;5074426;28;20064;-78
2021/05/09 00:25:53;;;;;;;0.90;0.90;;;;;;;9.82;66.17;96060.84;5075054;28;20020;-78
2021/05/09 00:28:19;;;;;;;0.73;0.73;;;;;;;9.79;66.06;96045.59;5075175;28;20052;-78
2021/05/09 00:30:46;;;;;;;0.88;0.88;;;;;;;9.78;66.16;96059.69;5073367;28;20040;-78
2021/05/09 00:33:18;;;;;;;1.02;0.88;;;;;;;9.75;66.25;96058.34;5075082;28;20375;-78
2021/05/09 00:35:44;;;;;;;1.00;0.90;;;;;;;9.72;66.36;96048.31;5074178;28;20041;-78
2021/05/09 00:38:10;;;;;;;1.10;1.00;;;;;;;9.71;66.39;96051.94;5074639;28;20055;-78
2021/05/09 00:40:37;;;;;;;2.05;0.90;;;;;;;9.70;66.54;96054.78;5073365;28;20036;-78
2021/05/09 00:43:14;;;;;;;0.90;0.90;;;;;;;9.67;66.60;96050.00;5075007;28;20477;-78
2021/05/09 00:45:40;;;;;;;0.98;0.88;;;;;;;9.66;66.65;96056.22;5074463;28;20044;-78
2021/05/09 00:48:09;;;;;;;0.70;0.70;;;;;;;9.65;66.80;96046.78;5074392;28;20036;-78
2021/05/09 00:50:36;;;;;;;1.10;1.00;;;;;;;9.62;66.72;96045.44;5074735;28;20063;-78
2021/05/09 00:53:06;;;;;;;1.13;0.82;;;;;;;9.61;66.85;96040.41;5074335;28;20028;-78
2021/05/09 00:55:33;;;;;;;1.10;1.00;;;;;;;9.59;66.81;96045.06;5074537;28;20032;-78
2021/05/09 00:58:00;;;;;;;0.70;0.70;;;;;;;9.58;66.89;96041.66;5073150;28;20044;-78
2021/05/09 01:00:26;;;;;;;0.70;0.70;;;;;;;9.59;67.06;96039.81;5072640;28;20056;-78
2021/05/09 01:02:53;;;;;;;0.70;0.70;;;;;;;9.60;67.17;96033.59;5074636;28;20045;-78
2021/05/09 01:05:19;;;;;;;0.60;0.60;;;;;;;9.61;67.12;96032.53;5074048;28;20055;-78
2021/05/09 01:07:45;;;;;;;0.80;0.80;;;;;;;9.58;67.20;96031.19;5073458;28;20040;-78
2021/05/09 01:10:13;;;;;;;1.65;0.60;;;;;;;9.59;67.33;96027.53;5074394;28;20032;-78
2021/05/09 01:12:41;;;;;;;0.60;0.60;;;;;;;9.57;67.27;96019.09;5074541;28;20044;-78
2021/05/09 01:15:08;;;;;;;0.70;0.70;;;;;;;9.56;67.52;96025.38;5073834;28;20047;-78
2021/05/09 01:17:35;;;;;;;0.77;0.77;;;;;;;9.57;67.47;96021.72;5074479;28;20041;-78
2021/05/09 01:20:24;;;;;;;0.70;0.70;;;;;;;9.58;68.17;96014.69;5072830;28;20028;-78
2021/05/09 01:22:53;;;;;;;0.70;0.70;;;;;;;9.58;67.53;96012.06;5074188;28;20040;-78
2021/05/09 01:25:19;;;;;;;0.77;0.65;;;;;;;9.57;67.57;96010.44;5073903;28;20037;-78
2021/05/09 01:27:45;;;;;;;0.80;0.80;;;;;;;9.57;67.54;96013.06;5073666;28;20044;-78
2021/05/09 01:30:12;;;;;;;0.70;0.70;;;;;;;9.58;67.77;96012.06;5073241;28;20405;-78
2021/05/09 01:32:39;;;;;;;0.80;0.80;;;;;;;9.58;67.86;96010.25;5074109;28;20441;-79
2021/05/09 01:35:06;;;;;;;0.60;0.60;;;;;;;9.56;67.72;96014.91;5073923;28;20048;-78
2021/05/09 01:37:33;;;;;;;0.70;0.70;;;;;;;9.54;67.84;96015.09;5073903;28;20037;-78
2021/05/09 01:39:59;;;;;;;1.88;0.70;;;;;;;9.53;68.03;96024.00;5074317;28;20036;-78
2021/05/09 01:42:25;;;;;;;1.25;0.88;;;;;;;9.51;68.18;96023.41;5073651;28;20047;-78
2021/05/09 01:44:53;;;;;;;0.80;0.80;;;;;;;9.49;68.07;96027.25;5072333;28;20041;-78
2021/05/09 01:47:20;;;;;;;0.80;0.80;;;;;;;9.45;68.13;96020.84;5072798;28;20040;-78
2021/05/09 01:49:47;;;;;;;0.80;0.80;;;;;;;9.42;68.26;96027.34;5073563;28;20358;-78
2021/05/09 01:52:13;;;;;;;0.80;0.80;;;;;;;9.35;68.18;96019.56;5073518;28;20036;-78
2021/05/09 01:54:39;;;;;;;0.80;0.80;;;;;;;9.29;68.43;96019.66;5073152;28;20055;-78
2021/05/09 01:57:06;;;;;;;0.95;0.95;;;;;;;9.26;68.46;96017.47;5073555;28;20477;-79
2021/05/09 01:59:32;;;;;;;1.75;1.10;;;;;;;9.23;68.35;96023.16;5073494;28;20053;-79
2021/05/09 02:01:58;;;;;;;0.90;0.90;;;;;;;9.21;68.60;96025.19;5073386;28;20060;-78
2021/05/09 02:04:24;;;;;;;1.83;1.02;;;;;;;9.19;68.67;96019.38;5073376;28;20033;-78
2021/05/09 02:06:50;;;;;;;1.33;1.25;;;;;;;9.17;68.84;96022.19;5073309;28;20037;-78
2021/05/09 02:09:17;;;;;;;1.40;1.30;;;;;;;9.17;68.82;96021.41;5072904;28;20048;-78
2021/05/09 02:11:43;;;;;;;1.23;1.13;;;;;;;9.17;69.05;96011.75;5073550;28;20461;-78
2021/05/09 02:14:09;;;;;;;1.13;1.02;;;;;;;9.15;69.08;96000.69;5072794;28;20032;-78
2021/05/09 02:16:35;;;;;;;1.33;1.10;;;;;;;9.16;69.04;96006.75;5073006;28;20044;-78
2021/05/09 02:19:02;;;;;;;1.35;1.25;;;;;;;9.16;69.08;96006.75;5073478;28;20051;-78
2021/05/09 02:21:29;;;;;;;1.38;1.27;;;;;;;9.16;68.99;96007.53;5073041;28;20049;-78
2021/05/09 02:23:55;;;;;;;1.40;1.30;;;;;;;9.14;69.33;96012.97;5072802;28;20052;-78
2021/05/09 02:26:21;;;;;;;1.45;1.35;;;;;;;9.13;69.22;96005.34;5073803;28;20032;-78
2021/05/09 02:28:47;;;;;;;2.85;1.90;;;;;;;9.10;69.16;96003.97;5073425;28;20099;-78
2021/05/09 02:31:14;;;;;;;1.25;1.25;;;;;;;9.08;69.33;96006.00;5072861;28;20048;-78
2021/05/09 02:33:40;;;;;;;1.20;1.20;;;;;;;9.08;69.36;96013.06;5072932;28;20071;-78
2021/05/09 02:36:06;;;;;;;1.77;1.20;;;;;;;9.05;69.40;96019.53;5073054;28;20044;-78
2021/05/09 02:38:32;;;;;;;1.05;1.05;;;;;;;9.04;69.36;96010.06;5073408;28;20040;-78
2021/05/09 02:40:58;;;;;;;1.10;1.10;;;;;;;9.03;69.40;96010.28;5072687;28;20040;-78
2021/05/09 02:43:25;;;;;;;1.17;1.10;;;;;;;9.01;69.38;96018.38;5072046;28;20032;-78
2021/05/09 02:45:51;;;;;;;1.10;1.00;;;;;;;8.99;69.46;96011.75;5073309;28;20037;-78
2021/05/09 02:48:17;;;;;;;2.15;1.30;;;;;;;8.97;69.62;96011.19;5072570;28;20032;-78
2021/05/09 02:50:43;;;;;;;1.10;1.10;;;;;;;8.94;69.59;96007.16;5072772;28;20043;-78
2021/05/09 02:53:09;;;;;;;1.40;1.30;;;;;;;8.93;69.66;96014.22;5073259;28;20043;-78
2021/05/09 02:55:35;;;;;;;1.58;1.48;;;;;;;8.91;69.82;96018.06;5072600;28;20065;-78
2021/05/09 02:58:02;;;;;;;1.45;0.98;;;;;;;8.93;69.79;96016.84;5073441;28;20045;-79
2021/05/09 03:00:28;;;;;;;1.00;1.00;;;;;;;8.94;69.97;96022.84;5073165;28;20063;-79
2021/05/09 03:02:54;;;;;;;1.20;1.10;;;;;;;8.92;70.00;96012.63;5073204;28;20055;-78
2021/05/09 03:05:20;;;;;;;0.90;0.90;;;;;;;8.90;70.17;96014.66;5072543;28;20032;-78
2021/05/09 03:07:47;;;;;;;1.00;1.00;;;;;;;8.91;69.99;96010.22;5071186;28;20044;-78
2021/05/09 03:10:13;;;;;;;1.20;1.10;;;;;;;8.90;70.33;96008.63;5073159;28;20469;-78
2021/05/09 03:12:39;;;;;;;1.23;1.13;;;;;;;8.88;70.26;96008.84;5072475;28;20412;-78
2021/05/09 03:15:06;;;;;;;1.17;1.17;;;;;;;8.86;70.36;96003.03;5072792;28;20070;-78
2021/05/09 03:17:33;;;;;;;0.95;0.95;;;;;;;8.89;70.44;96001.81;5072865;28;20464;-79
2021/05/09 03:20:00;;;;;;;1.13;0.90;;;;;;;8.89;70.49;96001.81;5072318;28;20051;-78
2021/05/09 03:22:27;;;;;;;1.02;1.02;;;;;;;8.87;70.42;95988.16;5072700;28;20041;-78
2021/05/09 03:24:53;;;;;;;2.25;1.13;;;;;;;8.84;70.56;95999.84;5072507;28;20492;-78
2021/05/09 03:27:20;;;;;;;1.00;1.00;;;;;;;8.79;70.69;95996.28;5072426;28;20059;-78
2021/05/09 03:29:46;;;;;;;2.42;1.10;;;;;;;8.76;70.70;95997.53;5072697;28;20040;-78
2021/05/09 03:32:12;;;;;;;1.10;1.00;;;;;;;8.76;70.98;96000.13;5074970;28;20457;-78
2021/05/09 03:34:38;;;;;;;1.25;1.00;;;;;;;8.76;70.99;95997.53;5075481;28;20044;-78
2021/05/09 03:37:04;;;;;;;1.40;1.30;;;;;;;8.78;71.08;95992.06;5075644;28;20044;-78
2021/05/09 03:39:32;;;;;;;1.10;1.10;;;;;;;8.78;71.13;95986.81;5075986;28;20048;-78
2021/05/09 03:41:59;;;;;;;1.05;1.05;;;;;;;8.78;71.16;95992.88;5074709;28;20492;-78
2021/05/09 03:44:25;;;;;;;1.30;1.20;;;;;;;8.80;71.19;95996.06;5075715;28;20103;-78
2021/05/09 03:46:51;;;;;;;0.85;0.85;;;;;;;8.80;71.37;95998.69;5075512;28;20500;-78
2021/05/09 03:49:17;;;;;;;1.25;0.70;;;;;;;8.81;71.22;95992.44;5075866;28;20044;-78
2021/05/09 03:51:43;;;;;;;0.70;0.70;;;;;;;8.80;71.29;95982.19;5075525;28;20476;-78
2021/05/09 03:54:09;;;;;;;1.15;1.02;;;;;;;8.79;71.33;95985.81;5075408;28;20397;-78
2021/05/09 03:56:36;;;;;;;0.90;0.90;;;;;;;8.77;71.33;95987.84;5074476;28;20044;-78
2021/05/09 03:59:02;;;;;;;1.15;0.70;;;;;;;8.77;71.43;95987.84;5076088;28;20052;-78
2021/05/09 04:01:28;;;;;;;0.85;0.85;;;;;;;8.76;71.42;95991.47;5075281;28;20044;-78
2021/05/09 04:03:54;;;;;;;0.90;0.90;;;;;;;8.76;71.49;95992.28;5075512;28;20044;-78
2021/05/09 04:06:20;;;;;;;2.65;0.85;;;;;;;8.78;71.72;95978.97;5075421;28;20043;-78
2021/05/09 04:08:47;;;;;;;0.80;0.80;;;;;;;8.79;71.77;95972.75;5075574;28;20036;-78
2021/05/09 04:11:13;;;;;;;0.80;0.80;;;;;;;8.78;71.69;95987.66;5075054;28;20048;-78
2021/05/09 04:13:47;;;;;;;0.52;0.52;;;;;;;8.74;72.00;95981.25;5076233;28;20043;-78
2021/05/09 04:16:13;;;;;;;1.23;1.00;;;;;;;8.72;71.57;95970.22;5075672;28;20048;-78
2021/05/09 04:18:40;;;;;;;1.00;1.00;;;;;;;8.70;71.78;95980.88;5074589;28;20046;-78
2021/05/09 04:21:06;;;;;;;0.70;0.70;;;;;;;8.71;71.98;95979.06;5074985;28;20482;-78
2021/05/09 04:23:33;;;;;;;0.80;0.80;;;;;;;8.72;71.94;95973.63;5074812;28;20036;-78
2021/05/09 04:26:00;;;;;;;0.90;0.90;;;;;;;8.74;71.99;95981.25;5074891;28;20041;-78
2021/05/09 04:28:26;;;;;;;0.80;0.77;;;;;;;8.77;72.05;95985.25;5074934;28;20049;-78
2021/05/09 04:30:52;;;;;;;0.90;0.90;;;;;;;8.79;72.15;95981.38;5075057;28;20040;-78
2021/05/09 04:33:25;;;;;;;0.70;0.70;;;;;;;8.80;72.31;95974.34;5075303;28;20036;-78
2021/05/09 04:35:51;;;;;;;1.00;0.82;;;;;;;8.82;72.17;95983.59;5061919;28;20039;-78
2021/05/09 04:38:18;;;;;;;0.90;0.90;;;;;;;8.85;72.31;95990.97;5075024;28;20032;-78
2021/05/09 04:40:44;;;;;;;2.60;0.70;;;;;;;9.04;72.51;95981.31;5075022;28;20035;-78
2021/05/09 04:43:13;;;;;;;0.80;0.80;;;;;;;9.35;72.80;95972.47;5074305;28;20047;-79
2021/05/09 04:45:39;;;;;;;1.35;0.95;;;;;;;9.65;72.35;95968.25;5074411;28;20040;-78
2021/05/09 04:48:06;;;;;;;0.80;0.80;;;;;;;9.90;72.00;95960.22;5074305;28;20033;-78
2021/05/09 04:50:33;;;;;;;0.82;0.75;;;;;;;10.17;71.76;95968.47;5074981;28;20041;-78
2021/05/09 04:52:59;;;;;;;0.80;0.80;;;;;;;10.54;71.55;95965.63;5074584;28;20041;-78
2021/05/09 04:55:26;;;;;;;1.00;1.00;;;;;;;10.97;71.39;95956.59;5074179;28;20485;-78
2021/05/09 04:57:52;;;;;;;0.90;0.90;;;;;;;11.49;70.93;95960.97;5074540;28;20044;-78
2021/05/09 05:00:19;;;;;;;0.75;0.75;;;;;;;12.00;70.29;95964.50;5074744;28;20059;-78
2021/05/09 05:02:46;;;;;;;0.82;0.82;;;;;;;12.50;69.57;95960.25;5074185;28;20040;-78
2021/05/09 05:05:14;;;;;;;1.15;0.95;;;;;;;12.93;68.65;95970.03;5074087;28;20032;-78
2021/05/09 05:07:41;;;;;;;0.70;0.70;;;;;;;13.35;67.81;95976.59;5074114;28;20040;-78
2021/05/09 05:10:08;;;;;;;0.90;0.90;;;;;;;13.76;66.92;95972.56;5074238;28;20037;-78
2021/05/09 05:12:34;;;;;;;0.93;0.93;;;;;;;14.18;65.93;95965.78;5074193;28;20041;-78
2021/05/09 05:15:00;;;;;;;1.92;0.70;;;;;;;14.56;65.09;95967.41;5073851;28;20048;-78
2021/05/09 05:17:27;;;;;;;0.60;0.60;;;;;;;14.96;64.06;95963.38;5073945;28;20040;-78
2021/05/09 05:19:53;;;;;;;0.75;0.75;;;;;;;15.32;62.88;95960.88;5073724;28;20048;-78
2021/05/09 05:22:20;;;;;;;0.77;0.70;;;;;;;15.61;61.51;95961.22;5073957;28;20056;-78
2021/05/09 05:24:46;;;;;;;0.70;0.70;;;;;;;15.82;60.55;95956.00;5074317;28;20036;-78
2021/05/09 05:27:12;;;;;;;0.50;0.50;;;;;;;16.02;59.55;95956.00;5074022;28;20039;-78
2021/05/09 05:29:38;;;;;;;0.38;0.38;;;;;;;16.22;58.47;95941.19;5072950;28;20052;-78
2021/05/09 05:32:05;;;;;;;0.70;0.70;;;;;;;16.39;57.69;95936.41;5073195;28;20071;-77
2021/05/09 05:34:31;;;;;;;0.50;0.50;;;;;;;16.65;56.55;95931.03;5074164;28;20404;-78
2021/05/09 05:36:57;;;;;;;0.60;0.60;;;;;;;16.87;55.74;95920.16;5073683;28;20039;-78
2021/05/09 05:39:23;;;;;;;1.70;0.63;;;;;;;17.12;54.57;95908.66;5073187;28;20412;-78
2021/05/09 05:41:49;;;;;;;0.60;0.60;;;;;;;17.35;53.54;95903.78;5073356;28;20036;-77
2021/05/09 05:44:16;;;;;;;0.90;0.60;;;;;;;17.60;52.24;95897.53;5073543;28;20041;-77
2021/05/09 05:46:42;;;;;;;0.60;0.60;;;;;;;17.68;51.24;95891.66;5073701;28;20041;-77
2021/05/09 05:49:08;;;;;;;0.73;0.73;;;;;;;17.98;50.33;95877.38;5073331;28;20131;-77
2021/05/09 05:51:34;;;;;;;0.60;0.60;;;;;;;18.24;49.54;95885.88;5073695;28;20037;-77
2021/05/09 05:54:00;;;;;;;0.50;0.50;;;;;;;18.42;48.16;95872.97;5072706;28;20047;-78
2021/05/09 05:56:27;;;;;;;0.70;0.70;;;;;;;18.46;47.11;95908.50;5073613;28;20043;-77
2021/05/09 05:58:53;;;;;;;0.70;0.70;;;;;;;18.48;46.21;95911.69;5073058;28;20052;-78
2021/05/09 06:01:19;;;;;;;0.50;0.50;;;;;;;18.63;45.92;95906.19;5073771;28;20055;-77
2021/05/09 06:03:45;;;;;;;0.85;0.50;;;;;;;18.77;45.21;95900.19;5073707;28;20041;-78
2021/05/09 06:06:11;;;;;;;1.30;0.60;;;;;;;19.01;44.74;95908.19;5073346;28;20048;-77
2021/05/09 06:08:39;;;;;;;0.60;0.60;;;;;;;19.18;43.93;95913.81;5072557;28;20072;-77
2021/05/09 06:11:05;;;;;;;0.60;0.60;;;;;;;19.04;43.47;95902.31;5073393;28;20036;-78
2021/05/09 06:13:31;;;;;;;0.40;0.40;;;;;;;19.16;43.14;95904.56;5072979;28;20489;-77
2021/05/09 06:15:58;;;;;;;0.43;0.43;;;;;;;19.31;42.54;95907.00;5073599;28;20047;-77
2021/05/09 06:18:24;;;;;;;1.67;0.60;;;;;;;19.52;42.60;95912.81;5073055;28;20036;-77
2021/05/09 06:20:51;;;;;;;0.68;0.68;;;;;;;19.84;42.13;95936.09;5073300;28;20040;-77
2021/05/09 06:23:24;;;;;;;0.70;0.70;;;;;;;20.02;40.84;95941.66;5072748;28;20060;-77
2021/05/09 06:25:51;;;;;;;1.08;0.60;;;;;;;20.17;41.13;95935.28;5073276;28;20481;-78
2021/05/09 06:28:18;;;;;;;0.68;0.68;;;;;;;20.39;40.76;95935.47;5073247;28;20040;-77
2021/05/09 06:30:47;;;;;;;0.50;0.50;;;;;;;20.60;39.58;95927.91;5073398;28;20043;-77
2021/05/09 06:33:15;;;;;;;1.63;0.57;;;;;;;20.85;39.59;95934.66;5072854;28;20461;-77
2021/05/09 06:35:42;;;;;;;1.42;0.73;;;;;;;21.19;39.34;95927.31;5072848;28;20480;-78
2021/05/09 06:38:09;;;;;;;0.85;0.60;;;;;;;21.36;38.73;95935.50;5062363;28;20114;-77
2021/05/09 06:40:37;;;;;;;0.70;0.60;;;;;;;21.40;38.51;95928.47;5072742;28;20039;-77
2021/05/09 06:43:08;;;;;;;0.50;0.50;;;;;;;21.64;37.93;95927.44;5073153;28;20044;-77
2021/05/09 06:45:35;;;;;;;0.90;0.50;;;;;;;21.87;37.40;95929.03;5073036;28;20480;-78
2021/05/09 06:48:05;;;;;;;0.52;0.43;;;;;;;21.92;36.97;95924.66;5072806;28;20040;-77
2021/05/09 06:50:33;;;;;;;0.60;0.60;;;;;;;21.93;36.64;95937.72;5072401;28;20040;-78
2021/05/09 06:53:02;;;;;;;0.50;0.50;;;;;;;22.02;36.41;95929.78;5072960;28;20056;-77
2021/05/09 06:55:29;;;;;;;0.52;0.52;;;;;;;21.78;36.42;95919.41;5072614;28;20031;-77
2021/05/09 06:57:56;;;;;;;0.50;0.50;;;;;;;21.78;36.43;95935.41;5072941;28;20052;-77
2021/05/09 07:00:23;;;;;;;0.93;0.70;;;;;;;21.73;36.33;95936.28;5073345;28;20049;-77
2021/05/09 07:02:49;;;;;;;0.73;0.50;;;;;;;21.80;36.31;95926.00;5072999;28;20049;-77
2021/05/09 07:05:16;;;;;;;1.48;0.47;;;;;;;22.00;36.23;95929.28;5073974;28;20072;-77
2021/05/09 07:08:00;;;;;;;0.55;0.50;;;;;;;22.20;35.95;95920.78;5076657;28;20037;-77
2021/05/09 07:10:27;;;;;;;2.63;0.65;;;;;;;22.56;35.98;95919.91;5067117;28;20048;-77
2021/05/09 07:12:56;;;;;;;0.40;0.40;;;;;;;22.70;35.54;95920.59;5076622;28;20043;-77
2021/05/09 07:15:28;;;;;;;1.17;0.50;;;;;;;22.93;35.44;95923.19;5076652;28;20041;-76
2021/05/09 07:18:03;;;;;;;0.40;0.40;;;;;;;23.01;35.19;95927.00;5075615;28;20504;-75
2021/05/09 07:20:32;;;;;;;0.47;0.47;;;;;;;23.17;34.86;95917.47;5064619;28;20051;-75
2021/05/09 07:22:59;;;;;;;1.20;0.50;;;;;;;23.15;35.05;95916.97;5075880;28;20063;-75
2021/05/09 07:25:25;;;;;;;0.70;0.70;;;;;;;23.13;35.04;95918.41;5076193;28;20064;-77
2021/05/09 07:27:52;;;;;;;1.02;0.55;;;;;;;23.04;34.99;95923.72;5075916;28;20496;-77
2021/05/09 07:30:18;;;;;;;0.68;0.68;;;;;;;23.10;35.05;95919.81;5075717;28;20473;-77
2021/05/09 07:32:44;;;;;;;0.85;0.47;;;;;;;23.25;34.92;95916.69;5076249;28;20027;-77
2021/05/09 07:35:11;;;;;;;1.08;0.50;;;;;;;23.22;34.84;95911.16;5075916;28;20473;-77
2021/05/09 07:37:39;;;;;;;0.63;0.50;;;;;;;23.32;34.58;95908.19;5075204;28;20057;-75
2021/05/09 07:40:06;;;;;;;0.50;0.50;;;;;;;23.29;34.57;95903.50;5075342;28;20048;-75
2021/05/09 07:42:32;;;;;;;0.57;0.52;;;;;;;23.22;34.19;95890.56;5075819;28;20037;-75
2021/05/09 07:44:59;;;;;;;0.60;0.60;;;;;;;23.43;34.59;95898.75;5075000;28;20040;-75
2021/05/09 07:47:26;;;;;;;0.40;0.40;;;;;;;23.64;34.58;95893.56;5075954;28;20036;-75
2021/05/09 07:49:52;;;;;;;0.60;0.60;;;;;;;23.91;34.59;95887.13;5074203;28;20055;-74
2021/05/09 07:52:19;;;;;;;1.08;0.60;;;;;;;23.93;34.15;95892.16;5076073;28;20036;-75
2021/05/09 07:54:45;;;;;;;0.50;0.50;;;;;;;23.84;34.04;95892.19;5075172;28;20049;-75
2021/05/09 07:57:11;;;;;;;0.68;0.50;;;;;;;23.75;34.05;95885.22;5074047;28;20052;-75
2021/05/09 07:59:38;;;;;;;1.38;0.50;;;;;;;23.77;34.05;95888.41;5075248;28;20481;-75
2021/05/09 08:02:04;;;;;;;1.17;0.50;;;;;;;24.00;34.24;95884.47;5075393;28;20051;-74
2021/05/09 08:04:31;;;;;;;0.70;0.40;;;;;;;24.18;33.74;95879.84;5075634;28;20032;-75
2021/05/09 08:06:57;;;;;;;0.60;0.60;;;;;;;24.46;33.77;95880.25;5075195;28;20045;-75
2021/05/09 08:09:23;;;;;;;0.60;0.40;;;;;;;24.76;33.18;95868.75;5074994;28;20041;-75
2021/05/09 08:11:49;;;;;;;0.93;0.47;;;;;;;24.67;32.54;95876.84;5075710;28;20465;-75
2021/05/09 08:14:15;;;;;;;0.75;0.40;;;;;;;24.69;32.73;95869.28;5075274;28;20055;-74
2021/05/09 08:16:41;;;;;;;0.40;0.40;;;;;;;24.98;32.72;95868.50;5073509;28;20393;-74
2021/05/09 08:19:08;;;;;;;1.08;0.60;;;;;;;25.34;32.48;95869.09;5075962;28;20032;-74
2021/05/09 08:21:34;;;;;;;2.38;0.50;;;;;;;25.37;32.09;95860.41;5075512;28;20041;-75
2021/05/09 08:24:00;;;;;;;0.35;0.35;;;;;;;25.27;32.02;95869.63;5075171;28;20041;-75
2021/05/09 08:26:26;;;;;;;0.40;0.40;;;;;;;25.17;32.19;95869.97;5073630;28;20040;-75
2021/05/09 08:28:53;;;;;;;0.40;0.40;;;;;;;25.24;32.18;95868.38;5075139;28;20457;-75
2021/05/09 08:31:19;;;;;;;0.40;0.40;;;;;;;25.23;32.37;95871.38;5074948;28;20036;-75
2021/05/09 08:33:48;;;;;;;0.40;0.40;;;;;;;25.26;32.61;95862.66;5074411;28;20044;-75
2021/05/09 08:36:15;;;;;;;0.57;0.40;;;;;;;25.26;32.20;95863.47;5075006;28;20029;-75
2021/05/09 08:38:41;;;;;;;0.30;0.30;;;;;;;25.38;32.33;95870.78;5074651;28;20044;-74
2021/05/09 08:41:07;;;;;;;0.60;0.60;;;;;;;25.62;32.37;95858.59;5074211;28;20059;-75
2021/05/09 08:43:34;;;;;;;0.32;0.32;;;;;;;25.76;32.47;95856.41;5074863;28;20039;-75
2021/05/09 08:46:00;;;;;;;0.50;0.50;;;;;;;25.78;31.96;95854.19;5074812;28;20048;-75
2021/05/09 08:48:27;;;;;;;0.50;0.32;;;;;;;25.91;32.11;95846.97;5074296;28;20039;-75
2021/05/09 08:50:54;;;;;;;0.40;0.40;;;;;;;26.01;31.94;95851.16;5073092;28;20036;-75
2021/05/09 08:53:21;;;;;;;1.65;0.45;;;;;;;26.20;32.01;95845.28;5074215;28;20043;-75
2021/05/09 08:55:48;;;;;;;0.40;0.40;;;;;;;26.33;31.55;95842.28;5074731;28;20468;-74
2021/05/09 08:58:15;;;;;;;0.40;0.40;;;;;;;26.35;31.52;95833.09;5074382;28;20044;-75
2021/05/09 09:00:41;;;;;;;0.28;0.28;;;;;;;26.36;31.54;95824.69;5074389;28;20068;-75
2021/05/09 09:03:07;;;;;;;0.43;0.40;;;;;;;26.39;31.16;95828.59;5074044;28;20052;-75
2021/05/09 09:05:46;;;;;;;1.42;0.60;;;;;;;26.40;31.24;95822.13;5073709;28;20408;-74
2021/05/09 09:08:16;;;;;;;0.30;0.30;;;;;;;26.58;30.37;95826.16;5074529;28;20396;-74
2021/05/09 09:10:47;;;;;;;0.60;0.50;;;;;;;26.66;30.58;95833.34;5073867;28;20395;-75
2021/05/09 09:13:23;;;;;;;0.35;0.35;;;;;;;26.83;30.23;95821.56;5073949;28;20075;-75
2021/05/09 09:15:57;;;;;;;0.32;0.32;;;;;;;26.60;29.26;95815.88;5074158;28;20052;-75
2021/05/09 09:18:29;;;;;;;0.35;0.35;;;;;;;26.39;30.23;95820.53;5074031;28;20404;-75
2021/05/09 09:20:56;;;;;;;0.32;0.32;;;;;;;26.60;30.58;95815.88;5074323;28;20055;-75
2021/05/09 09:23:23;;;;;;;0.85;0.40;;;;;;;26.84;30.81;95814.28;5074034;28;20041;-75
2021/05/09 09:25:49;;;;;;;0.40;0.40;;;;;;;27.00;30.49;95803.59;5073619;28;20044;-75
2021/05/09 09:28:17;;;;;;;0.57;0.40;;;;;;;27.10;30.29;95805.84;5073482;28;20123;-74
2021/05/09 09:30:55;;;;;;;0.70;0.47;;;;;;;27.23;29.61;95793.94;5073424;28;20029;-74
2021/05/09 09:33:21;;;;;;;0.30;0.28;;;;;;;27.28;30.45;95796.41;5072584;28;20043;-75
2021/05/09 09:35:54;;;;;;;0.30;0.30;;;;;;;27.06;30.59;95797.66;5074095;28;20509;-74
2021/05/09 09:38:29;;;;;;;0.60;0.60;;;;;;;26.97;30.10;95790.84;5073690;28;20036;-75
2021/05/09 09:41:13;;;;;;;0.30;0.30;;;;;;;26.92;30.46;95789.16;5073846;28;20036;-74
2021/05/09 09:43:41;;;;;;;0.77;0.50;;;;;;;26.88;30.97;95789.06;5060702;28;20029;-74
2021/05/09 09:46:27;;;;;;;0.32;0.30;;;;;;;26.93;30.22;95782.66;5073834;28;20449;-75
2021/05/09 09:48:54;;;;;;;0.30;0.30;;;;;;;27.04;30.77;95782.97;5073389;28;20028;-75
2021/05/09 09:51:21;;;;;;;3.42;0.70;;;;;;;27.41;30.32;95769.44;5073259;28;20063;-75
2021/05/09 09:53:48;;;;;;;0.30;0.30;;;;;;;27.73;30.11;95773.75;5073735;28;20063;-75
2021/05/09 09:56:19;;;;;;;0.30;0.30;;;;;;;27.87;29.91;95762.59;5072867;28;20040;-75
2021/05/09 09:58:54;;;;;;;1.40;0.40;;;;;;;27.92;29.47;95762.31;5073537;28;20061;-76
2021/05/09 10:01:30;;;;;;;0.52;0.52;;;;;;;28.01;28.15;95754.06;5073074;28;20040;-75
2021/05/09 10:03:59;;;;;;;0.47;0.40;;;;;;;28.12;28.95;95757.03;5073280;28;20047;-75
2021/05/09 10:06:27;;;;;;;0.55;0.40;;;;;;;28.17;29.08;95756.00;5073855;28;20041;-75
2021/05/09 10:08:54;;;;;;;1.25;0.40;;;;;;;28.13;28.40;95753.97;5073255;28;20472;-75
2021/05/09 10:11:21;;;;;;;3.83;0.43;;;;;;;27.96;28.38;95748.16;5072938;28;20045;-74
2021/05/09 10:13:48;;;;;;;0.40;0.40;;;;;;;27.98;28.45;95752.06;5073251;28;20029;-74
2021/05/09 10:16:22;;;;;;;0.35;0.30;;;;;;;28.01;28.14;95748.66;5073285;28;20036;-75
2021/05/09 10:18:52;;;;;;;0.60;0.38;;;;;;;28.06;28.24;95734.94;5073836;28;20047;-75
2021/05/09 10:21:20;;;;;;;2.15;1.00;;;;;;;28.12;28.27;95733.56;5073659;28;20396;-75
2021/05/09 10:24:08;;;;;;;0.32;0.32;;;;;;;28.39;27.49;95731.09;5073227;28;20036;-75
2021/05/09 10:26:44;;;;;;;0.47;0.47;;;;;;;28.51;27.25;95731.00;5060289;28;20028;-75
2021/05/09 10:29:32;;;;;;;0.35;0.35;;;;;;;28.81;26.92;95727.81;5072908;28;20040;-75
2021/05/09 10:31:59;;;;;;;0.55;0.40;;;;;;;29.09;27.03;95735.72;5073731;28;20397;-74
2021/05/09 10:34:54;;;;;;;0.75;0.50;;;;;;;29.09;24.56;95727.59;5073092;28;20035;-74
2021/05/09 10:37:35;;;;;;;2.00;1.65;;;;;;;29.20;25.38;95727.84;5072734;28;20032;-74
2021/05/09 10:40:41;;;;;;;0.40;0.40;;;;;;;29.33;24.43;95720.38;5064398;28;20059;-74
2021/05/09 10:43:15;;;;;;;0.40;0.40;;;;;;;29.39;25.20;95727.03;5068417;28;20037;-75
2021/05/09 10:45:41;;;;;;;0.30;0.30;;;;;;;29.09;25.04;95730.31;5077640;28;20039;-75
2021/05/09 10:48:16;;;;;;;0.30;0.30;;;;;;;29.05;25.27;95725.97;5077010;28;20373;-75
2021/05/09 10:51:14;;;;;;;0.20;0.20;;;;;;;29.01;25.34;95723.19;5076296;28;20056;-75
2021/05/09 10:53:41;;;;;;;0.47;0.30;;;;;;;29.24;25.03;95712.50;5062519;28;20501;-75
2021/05/09 10:56:13;;;;;;;0.38;0.38;;;;;;;29.27;24.60;95714.50;5081369;28;20055;-74
2021/05/09 10:58:49;;;;;;;0.38;0.30;;;;;;;29.26;24.15;95712.16;5075987;28;20045;-74
2021/05/09 11:01:23;;;;;;;1.27;0.40;;;;;;;29.49;23.90;95715.66;5078653;28;20060;-75
2021/05/09 11:03:51;;;;;;;;;;;;;;;29.66;24.22;95705.53;5077869;28;20382;-74
2021/05/09 11:06:25;;;;;;;0.35;0.20;;;;;;;29.83;23.98;95702.38;5078782;28;19927;-75
2021/05/09 11:09:17;;;;;;;0.38;0.30;;;;;;;29.91;23.46;95697.88;5077044;28;20043;-74
2021/05/09 11:11:46;;;;;;;0.50;0.50;;;;;;;29.98;24.65;95691.78;5063497;28;20515;-75
2021/05/09 11:14:12;;;;;;;5.15;0.68;;;;;;;30.03;24.43;95689.56;5076776;28;20040;-75
2021/05/09 11:16:40;;;;;;;0.25;0.20;;;;;;;30.05;24.08;95692.69;5076423;28;20032;-75
2021/05/09 11:19:07;;;;;;;0.43;0.43;;;;;;;30.06;24.09;95688.06;5076396;28;20037;-74
2021/05/09 11:21:49;;;;;;;0.20;0.20;;;;;;;29.95;22.38;95690.59;5076405;28;20049;-75
2021/05/09 11:24:27;;;;;;;0.50;0.30;;;;;;;29.95;23.64;95687.91;5076803;28;20041;-75
2021/05/09 11:26:58;;;;;;;0.32;0.30;;;;;;;30.14;23.01;95676.22;5076401;28;20039;-75
2021/05/09 11:29:26;;;;;;;0.55;0.40;;;;;;;30.47;23.12;95669.34;5075810;28;20044;-75
2021/05/09 11:31:54;;;;;;;0.40;0.40;;;;;;;30.60;22.76;95675.34;5075963;28;20481;-75
2021/05/09 11:34:22;;;;;;;0.50;0.50;;;;;;;30.54;22.08;95672.94;5076227;28;20035;-75
2021/05/09 11:36:50;;;;;;;0.98;0.30;;;;;;;30.61;21.68;95676.91;5074460;28;20496;-75
2021/05/09 11:39:18;;;;;;;0.30;0.30;;;;;;;30.29;21.63;95683.41;5075811;28;20032;-75
2021/05/09 11:41:56;;;;;;;0.20;0.20;;;;;;;29.90;20.76;95663.88;5075600;28;20394;-75